KBFF/BFF METAR and TAF weather

Enter ICAO airport designator
Station Type Date Time Source
KBFF METAR 2018/07/16 23:53 UTC NOAA

KBFF 162353Z AUTO 09008KT 10SM CLR 31/20 A3007 RMK AO2 SLP136 T03060200 10328 20272 57014


Station Type Date Time Source
KBFF Decoded METAR 2018/07/16 23:53 UTC NOAA

SCOTTSBLUFF HEILIG FIELD, NE, United States (KBFF) 41-52N 103-36W 1203M
Jul 16, 2018 - 07:53 PM EDT / 2018.07.16 2353 UTC
Wind: from the E (090 degrees) at 9 MPH (8 KT):0
Visibility: 10 mile(s):0
Sky conditions: clear
Temperature: 87.1 F (30.6 C)
Dew Point: 68.0 F (20.0 C)
Relative Humidity: 53%
Pressure (altimeter): 30.07 in. Hg (1018 hPa)
Pressure tendency: 0.04 inches (1.4 hPa) lower than three hours ago
ob: KBFF 162353Z AUTO 09008KT 10SM CLR 31/20 A3007 RMK AO2 SLP136 T03060200 10328 20272 57014
cycle: 0

Station Type Date Time Source
KBFF TAF 2018/07/16 18:33 UTC NOAA

TAF KBFF 161730Z 1618/1718 15009KT P6SM SCT040
FM170000 13009KT P6SM VCTS SCT060CB
FM170200 12007KT 6SM -TSRA BKN050CB BKN100


Example: see airport list